Republica Dominicana

METAR

SADR31 MDSD 221300Z
METAR
METAR MDPP 221300Z 10013KT 9999 FEW020 29/24 Q1016=
METAR MDST 221300Z 14008KT 9999 FEW022 27/24 Q1016=
METAR MDPC 221300Z 04004KT 9999 FEW018CB SCT020 28/25 Q1016 CB/NE=
METAR MDBH 221300Z 16006KT 9999 FEW018CB FEW020 30/25 Q1016 CB/SE=
METAR MDJB 221300Z 03008KT 9999 FEW018 27/23 Q1016=
METAR MDSD 221300Z 02004KT 9999 FEW018 SCT080 28/23 Q1016 NOSIG=
METAR MDLR 221300Z 00000KT 9999 FEW016 28/25 Q1015=
METAR MDCY 221300Z 00000KT 9999 SCT018 28/25 Q1016=
METAR MDAB 221300Z 00000KT 9999 SCT018 27/24 Q1017=




Tamaño letra

Contraste

Otros